createdAt,value
2022-08-26T00:02:59.746Z,33.57184
2022-08-26T00:08:00.787Z,33.77413
2022-08-26T00:13:02.121Z,33.85959
2022-08-26T00:18:03.119Z,33.69385
2022-08-26T00:23:17.845Z,33.91469
2022-08-26T00:38:19.775Z,34.10409
2022-08-26T00:43:20.676Z,34.04172
2022-08-26T00:48:22.028Z,34.0486
2022-08-26T00:53:24.289Z,33.90006
2022-08-26T00:58:31.822Z,33.80959
2022-08-26T01:03:33.487Z,33.78985
2022-08-26T01:08:34.767Z,33.81726
2022-08-26T01:13:36.122Z,34.00203
2022-08-26T01:18:37.465Z,34.11178
2022-08-26T01:23:39.311Z,34.03814
2022-08-26T01:28:40.712Z,34.15487
2022-08-26T01:33:42.412Z,34.06213
2022-08-26T01:38:43.587Z,33.9152
2022-08-26T01:43:45.988Z,34.09347
2022-08-26T01:48:47.071Z,34.17368
2022-08-26T01:53:48.235Z,34.35773
2022-08-26T01:58:49.199Z,34.49815
2022-08-26T02:03:52.598Z,34.65059
2022-08-26T02:08:53.778Z,34.75462
2022-08-26T02:13:56.583Z,34.77813
2022-08-26T02:18:57.790Z,34.77201
2022-08-26T02:23:58.701Z,34.49058
2022-08-26T02:29:00.513Z,34.71682
2022-08-26T02:34:02.365Z,34.66163
2022-08-26T02:39:03.585Z,34.69198
2022-08-26T02:44:04.871Z,34.77813
2022-08-26T02:49:06.318Z,34.71553
2022-08-26T02:54:07.635Z,34.4644
2022-08-26T02:59:08.545Z,34.63503
2022-08-26T03:09:10.563Z,34.90467
2022-08-26T03:14:19.493Z,35.09402
2022-08-26T03:19:20.430Z,35.01351
2022-08-26T03:24:21.351Z,34.93471
2022-08-26T03:29:23.612Z,34.81797
2022-08-26T03:44:28.706Z,34.6401
2022-08-26T03:49:29.644Z,35.00815
2022-08-26T03:54:30.573Z,35.05012
2022-08-26T04:04:32.120Z,34.97705
2022-08-26T04:09:35.418Z,35.15429
2022-08-26T04:14:40.170Z,35.2142
2022-08-26T04:19:42.921Z,35.15356
2022-08-26T04:24:44.621Z,35.02389
2022-08-26T04:30:00.135Z,35.05595
2022-08-26T04:35:01.241Z,35.31582
2022-08-26T04:40:02.956Z,35.43045
2022-08-26T04:45:10.166Z,35.30239
2022-08-26T04:50:13.139Z,35.46654
2022-08-26T04:55:15.463Z,35.6918
2022-08-26T05:00:16.849Z,35.85494
2022-08-26T05:05:18.112Z,35.85401
2022-08-26T05:10:19.332Z,35.76804
2022-08-26T05:15:20.487Z,35.49758
2022-08-26T05:20:26.142Z,35.30963
2022-08-26T05:25:27.478Z,35.50999
2022-08-26T05:30:28.628Z,35.58897
2022-08-26T05:35:34.336Z,35.25103
2022-08-26T05:40:35.472Z,35.16531
2022-08-26T05:45:36.435Z,34.85965
2022-08-26T05:50:37.367Z,35.08011
2022-08-26T06:00:39.801Z,35.20567
2022-08-26T06:05:44.126Z,35.16797
2022-08-26T06:11:21.359Z,35.03321
2022-08-26T06:16:25.428Z,34.78143
2022-08-26T06:21:26.580Z,34.56552
2022-08-26T06:26:27.494Z,34.37544
2022-08-26T06:31:28.418Z,34.11571
2022-08-26T06:36:30.192Z,33.76294
2022-08-26T06:41:33.150Z,32.34225
2022-08-26T06:46:34.635Z,30.80073
2022-08-26T06:51:35.608Z,31.3224
2022-08-26T06:56:37.602Z,31.85354
2022-08-26T07:01:38.889Z,31.97089
2022-08-26T07:06:44.072Z,32.06603
2022-08-26T07:11:46.990Z,31.91288
2022-08-26T07:16:50.282Z,32.1186
2022-08-26T07:27:11.815Z,31.49735
2022-08-26T07:32:12.805Z,31.50606
2022-08-26T07:37:13.756Z,31.15587
2022-08-26T07:47:24.667Z,30.6469
2022-08-26T07:52:27.672Z,30.39263
2022-08-26T07:57:28.648Z,30.54127
2022-08-26T08:02:29.741Z,30.32564
2022-08-26T08:07:44.425Z,30.11106
2022-08-26T08:12:46.103Z,29.91645
2022-08-26T08:17:47.126Z,29.66189
2022-08-26T08:22:53.152Z,29.25164
2022-08-26T08:27:54.811Z,29.05718
2022-08-26T08:32:55.731Z,28.71967
2022-08-26T08:42:57.098Z,27.76858
2022-08-26T08:47:58.004Z,27.27953
2022-08-26T08:58:02.522Z,27.12263
2022-08-26T09:08:04.085Z,26.71724
2022-08-26T09:18:08.361Z,26.45539
2022-08-26T09:23:11.933Z,25.83128
2022-08-26T09:28:12.846Z,25.82349
2022-08-26T09:33:14.517Z,25.67473
2022-08-26T09:38:18.535Z,25.50035
2022-08-26T09:48:20.520Z,24.10341
2022-08-26T09:53:25.179Z,24.29944
2022-08-26T09:58:29.930Z,24.67612
2022-08-26T10:08:34.130Z,24.0848
2022-08-26T10:13:35.132Z,24.45697
2022-08-26T10:18:36.364Z,24.18913
2022-08-26T10:23:37.789Z,23.98647
2022-08-26T10:28:39.660Z,23.31355
2022-08-26T10:33:41.440Z,22.91452
2022-08-26T10:38:44.264Z,21.97145
2022-08-26T10:43:45.299Z,22.154
2022-08-26T10:48:53.661Z,22.3485
2022-08-26T10:54:16.457Z,22.9208
2022-08-26T10:59:18.496Z,23.4664
2022-08-26T11:04:20.254Z,23.5794
2022-08-26T11:09:25.793Z,23.87675
2022-08-26T11:19:50.575Z,24.12839
2022-08-26T11:24:58.000Z,24.68803
2022-08-26T11:30:09.112Z,24.80295
2022-08-26T11:35:10.997Z,25.7491
2022-08-26T11:40:11.946Z,27.36415
2022-08-26T11:45:12.901Z,29.69585
2022-08-26T11:50:13.982Z,30.45515
2022-08-26T11:55:14.884Z,31.44434
2022-08-26T12:15:18.411Z,33.55893
2022-08-26T12:25:20.239Z,33.02323
2022-08-26T12:30:21.167Z,32.66751
2022-08-26T12:35:22.904Z,33.56484
2022-08-26T12:40:28.611Z,33.99059
2022-08-26T12:45:30.373Z,35.26744
2022-08-26T12:50:31.411Z,36.28539
2022-08-26T12:55:32.574Z,36.71038
2022-08-26T13:00:33.624Z,36.69578
2022-08-26T13:05:34.694Z,36.97918
2022-08-26T13:10:35.633Z,37.80532
2022-08-26T13:15:38.410Z,38.39288
2022-08-26T13:20:40.938Z,38.63427
2022-08-26T13:25:41.904Z,38.54972
2022-08-26T13:30:42.943Z,38.16266
2022-08-26T13:35:44.052Z,38.0466
2022-08-26T13:40:45.157Z,38.30148
2022-08-26T13:45:46.099Z,38.39735
2022-08-26T13:55:47.540Z,38.29756
2022-08-26T14:00:48.832Z,38.30308
2022-08-26T14:05:49.834Z,38.00028
2022-08-26T14:10:50.839Z,38.29363
2022-08-26T14:15:51.886Z,38.70007
2022-08-26T14:20:52.839Z,39.11175
2022-08-26T14:25:53.926Z,39.44417
2022-08-26T14:30:55.021Z,39.6014
2022-08-26T14:35:56.052Z,39.6206
2022-08-26T14:40:57.051Z,39.55468
2022-08-26T14:45:58.056Z,39.52376
2022-08-26T14:51:03.050Z,39.02801
2022-08-26T14:56:04.039Z,38.84658
2022-08-26T15:01:07.662Z,38.5382
2022-08-26T15:06:08.988Z,38.31905
2022-08-26T15:11:09.989Z,37.98581
2022-08-26T15:16:11.023Z,38.29039
2022-08-26T15:21:12.035Z,38.50272
2022-08-26T15:26:13.104Z,38.4783
2022-08-26T15:31:14.160Z,38.40611
2022-08-26T15:36:18.018Z,38.53296
2022-08-26T15:41:18.989Z,38.56934
2022-08-26T15:46:20.974Z,38.37508
2022-08-26T15:51:23.533Z,38.62995
2022-08-26T15:56:24.554Z,38.81726
2022-08-26T16:01:27.841Z,38.81135
2022-08-26T16:06:28.971Z,38.59347
2022-08-26T16:11:29.944Z,38.48337
2022-08-26T16:16:31.875Z,38.24077
2022-08-26T16:21:35.311Z,38.21804
2022-08-26T16:31:51.273Z,39.02926
2022-08-26T16:36:52.247Z,38.78705
2022-08-26T16:41:53.133Z,38.79933
2022-08-26T16:46:58.450Z,38.82968
2022-08-26T16:51:59.831Z,39.0836
2022-08-26T16:57:00.851Z,38.72041
2022-08-26T17:02:01.910Z,38.82269
2022-08-26T17:07:04.009Z,38.94954
2022-08-26T17:12:04.960Z,39.03968
2022-08-26T17:17:05.922Z,38.56059
2022-08-26T17:22:06.886Z,38.39621
2022-08-26T17:27:07.835Z,38.66934
2022-08-26T17:32:09.175Z,38.99072
2022-08-26T17:37:10.088Z,38.79674
2022-08-26T17:47:11.590Z,38.85177
2022-08-26T17:52:12.485Z,39.15413
2022-08-26T17:57:13.386Z,39.43755
2022-08-26T18:02:14.966Z,39.53386
2022-08-26T18:07:15.959Z,39.54607
2022-08-26T18:12:16.851Z,39.64882
2022-08-26T18:17:17.856Z,39.55766
2022-08-26T18:22:20.468Z,39.38877
2022-08-26T18:27:21.396Z,38.90528
2022-08-26T18:32:22.336Z,38.78964
2022-08-26T18:37:24.915Z,38.93554
2022-08-26T18:42:35.976Z,38.73597
2022-08-26T18:47:36.918Z,38.87598
2022-08-26T18:52:37.953Z,39.10004
2022-08-26T18:57:38.889Z,39.29368
2022-08-26T19:02:39.991Z,39.37245
2022-08-26T19:07:41.434Z,39.50544
2022-08-26T19:12:44.187Z,39.3784
2022-08-26T19:17:45.116Z,39.41431
2022-08-26T19:22:46.027Z,39.54721
2022-08-26T19:27:46.976Z,39.54124
2022-08-26T19:32:47.950Z,39.61957
2022-08-26T19:37:48.867Z,39.69188
2022-08-26T19:42:49.770Z,39.52881
2022-08-26T19:47:50.762Z,39.54081
2022-08-26T19:52:51.772Z,39.42523
2022-08-26T19:57:53.114Z,39.14148
2022-08-26T20:02:54.681Z,38.91161
2022-08-26T20:07:55.736Z,38.73633
2022-08-26T20:12:56.735Z,38.85228
2022-08-26T20:22:58.164Z,39.23298
2022-08-26T20:27:59.096Z,39.11789
2022-08-26T20:33:00.082Z,39.33619
2022-08-26T20:38:01.081Z,39.43877
2022-08-26T20:43:01.990Z,39.04569
2022-08-26T20:48:02.949Z,39.20949
2022-08-26T20:53:03.947Z,39.40863
2022-08-26T21:03:07.034Z,39.21527
2022-08-26T21:08:08.193Z,38.98572
2022-08-26T21:13:11.925Z,39.32433
2022-08-26T21:18:12.920Z,39.22784
2022-08-26T21:23:13.834Z,39.42152
2022-08-26T21:28:14.835Z,39.61463
2022-08-26T21:38:49.875Z,39.06536
2022-08-26T21:43:50.855Z,38.83022
2022-08-26T21:48:51.818Z,39.10886
2022-08-26T21:53:52.754Z,39.36237
2022-08-26T21:58:53.722Z,39.45305
2022-08-26T22:03:54.670Z,39.18122
2022-08-26T22:08:55.625Z,39.27143
2022-08-26T22:13:56.545Z,39.30213
2022-08-26T22:18:57.458Z,39.09104
2022-08-26T22:23:58.477Z,39.15706
2022-08-26T22:28:59.594Z,38.83018
2022-08-26T22:34:00.536Z,38.46856
2022-08-26T22:39:01.630Z,38.59051
2022-08-26T22:59:04.018Z,38.42783
2022-08-26T23:04:06.420Z,38.62189
2022-08-26T23:09:07.398Z,38.54386
2022-08-26T23:14:08.313Z,38.85282
2022-08-26T23:19:09.289Z,38.55026
2022-08-26T23:24:10.224Z,38.82253
2022-08-26T23:29:11.176Z,38.83448
2022-08-26T23:34:12.162Z,39.21433
2022-08-26T23:39:13.235Z,39.28111
2022-08-26T23:44:14.186Z,39.39477
2022-08-26T23:49:15.223Z,39.45531
2022-08-26T23:54:16.137Z,39.48552
2022-08-26T23:59:19.110Z,39.53374
